Time;durP1;ratioP1;P1;durP2;ratioP2;P2;SDS_P1;SDS_P2;PMS_P1;PMS_P2;Temp;Humidity;BMP_temperature;BMP_pressure;BME280_temperature;BME280_humidity;BME280_pressure;Samples;Min_cycle;Max_cycle;Signal;HPM_P1;HPM_P2
2021/01/06 00:01:24;;;;;;;11.57;5.93;;;;;;;;;;5098972;28;20036;-79
2021/01/06 00:03:50;;;;;;;10.40;5.22;;;3.10;99.90;;;;;;5098265;28;20111;-79
2021/01/06 00:06:21;;;;;;;14.38;5.90;;;3.10;99.90;;;;;;5098199;28;20103;-79
2021/01/06 00:08:47;;;;;;;15.90;6.28;;;3.10;99.90;;;;;;5098212;28;20036;-79
2021/01/06 00:11:17;;;;;;;14.00;6.30;;;;;;;;;;5097003;28;20043;-79
2021/01/06 00:13:43;;;;;;;13.82;5.97;;;;;;;;;;5096671;28;20040;-79
2021/01/06 00:16:09;;;;;;;10.50;5.43;;;;;;;;;;5096970;28;20050;-79
2021/01/06 00:18:35;;;;;;;13.50;5.45;;;;;;;;;;5098435;28;20048;-79
2021/01/06 00:21:01;;;;;;;12.82;5.63;;;;;;;;;;5099565;28;20097;-79
2021/01/06 00:23:27;;;;;;;10.77;5.35;;;;;;;;;;5120444;28;20045;-79
2021/01/06 00:25:53;;;;;;;10.63;4.65;;;;;;;;;;5124014;28;20473;-79
2021/01/06 00:28:22;;;;;;;9.27;4.78;;;3.00;99.90;;;;;;5122344;28;20050;-79
2021/01/06 00:30:50;;;;;;;9.52;4.82;;;3.00;99.90;;;;;;5124481;28;20047;-79
2021/01/06 00:33:18;;;;;;;7.70;4.10;;;3.10;99.90;;;;;;5124798;28;20039;-78
2021/01/06 00:35:49;;;;;;;17.70;5.50;;;3.00;99.90;;;;;;5127091;28;20065;-79
2021/01/06 00:38:15;;;;;;;13.50;4.97;;;;;;;;;;5131871;28;20040;-80
2021/01/06 00:40:44;;;;;;;9.70;4.97;;;3.10;99.90;;;;;;5135618;28;20043;-79
2021/01/06 00:43:11;;;;;;;9.75;4.93;;;;;;;;;;5132479;28;20055;-79
2021/01/06 00:45:39;;;;;;;13.27;4.38;;;;;;;;;;5136907;28;20034;-80
2021/01/06 00:48:05;;;;;;;9.18;4.50;;;;;;;;;;5138334;28;20028;-80
2021/01/06 00:50:32;;;;;;;7.45;4.22;;;3.00;99.90;;;;;;5121930;28;20079;-79
2021/01/06 00:52:58;;;;;;;11.40;4.70;;;;;;;;;;5117399;28;20400;-79
2021/01/06 00:55:24;;;;;;;12.07;4.43;;;;;;;;;;5116537;28;20039;-79
2021/01/06 00:57:51;;;;;;;12.18;4.65;;;;;;;;;;5116848;28;20047;-79
2021/01/06 01:00:19;;;;;;;10.15;4.57;;;3.00;99.90;;;;;;5118003;28;20040;-79
2021/01/06 01:02:50;;;;;;;9.75;4.53;;;;;;;;;;5117776;28;20072;-78
2021/01/06 01:05:16;;;;;;;9.95;4.20;;;;;;;;;;5117629;28;20093;-79
2021/01/06 01:07:43;;;;;;;8.80;4.70;;;;;;;;;;5117972;28;20488;-79
2021/01/06 01:10:09;;;;;;;10.65;4.57;;;;;;;;;;5118456;28;20138;-79
2021/01/06 01:12:35;;;;;;;7.32;3.90;;;;;;;;;;5117520;28;20065;-79
2021/01/06 01:15:01;;;;;;;8.93;4.50;;;;;;;;;;5119308;28;20078;-79
2021/01/06 01:17:28;;;;;;;8.75;4.20;;;;;;;;;;5119719;28;20047;-79
2021/01/06 01:19:55;;;;;;;9.00;4.32;;;;;;;;;;5118219;28;20039;-79
2021/01/06 01:22:21;;;;;;;8.23;3.90;;;;;;;;;;5118764;28;20044;-79
2021/01/06 01:24:47;;;;;;;8.65;4.18;;;;;;;;;;5117712;28;20407;-79
2021/01/06 01:27:13;;;;;;;9.15;4.40;;;;;;;;;;5117882;28;20074;-79
2021/01/06 01:29:39;;;;;;;9.25;3.47;;;;;;;;;;5120393;28;20404;-79
2021/01/06 01:32:05;;;;;;;8.32;3.85;;;2.90;99.90;;;;;;5121170;28;20047;-78
2021/01/06 01:34:30;;;;;;;8.27;4.10;;;2.90;99.90;;;;;;5120691;28;20043;-79
2021/01/06 01:36:59;;;;;;;6.68;3.33;;;;;;;;;;5120449;28;20042;-79
2021/01/06 01:39:25;;;;;;;7.93;3.95;;;;;;;;;;5121560;28;20054;-79
2021/01/06 01:41:58;;;;;;;6.60;3.58;;;2.90;99.90;;;;;;5120902;28;20103;-78
2021/01/06 01:44:24;;;;;;;12.15;4.20;;;;;;;;;;5120554;28;20061;-79
2021/01/06 01:47:12;;;;;;;7.80;3.78;;;2.90;99.90;;;;;;5120555;28;20122;-79
2021/01/06 01:49:43;;;;;;;8.68;4.03;;;2.90;99.90;;;;;;5119574;28;20036;-79
2021/01/06 01:52:23;;;;;;;9.48;4.30;;;2.90;99.90;;;;;;5120251;28;20492;-78
2021/01/06 01:54:50;;;;;;;7.82;4.43;;;3.90;99.90;;;;;;5120425;28;20477;-79
2021/01/06 01:57:21;;;;;;;10.70;5.20;;;2.90;99.90;;;;;;5121193;28;20075;-79
2021/01/06 01:59:52;;;;;;;9.20;4.45;;;2.90;99.90;;;;;;5120237;28;20040;-79
2021/01/06 02:02:24;;;;;;;9.07;5.07;;;2.90;99.90;;;;;;5120323;28;20047;-79
2021/01/06 02:04:55;;;;;;;10.20;4.85;;;2.90;99.90;;;;;;5120494;28;20027;-79
2021/01/06 02:07:25;;;;;;;7.78;4.22;;;2.90;99.90;;;;;;5120518;28;20039;-79
2021/01/06 02:09:57;;;;;;;9.80;4.72;;;2.90;99.90;;;;;;5120737;28;20047;-79
2021/01/06 02:12:32;;;;;;;10.63;4.93;;;2.90;99.90;;;;;;5121206;28;20043;-79
2021/01/06 02:15:06;;;;;;;9.32;4.88;;;2.90;99.90;;;;;;5120916;28;20101;-78
2021/01/06 02:17:32;;;;;;;10.55;5.15;;;;;;;;;;5120240;28;20519;-78
2021/01/06 02:19:58;;;;;;;9.68;4.97;;;;;;;;;;5120466;28;20382;-78
2021/01/06 02:22:25;;;;;;;10.38;5.22;;;;;;;;;;5120398;28;20489;-78
2021/01/06 02:24:52;;;;;;;8.63;4.75;;;3.00;99.90;;;;;;5120107;28;20039;-79
2021/01/06 02:27:19;;;;;;;10.20;5.18;;;2.90;99.90;;;;;;5120590;28;20055;-79
2021/01/06 02:29:45;;;;;;;9.40;5.07;;;;;;;;;;5119863;28;20453;-78
2021/01/06 02:32:12;;;;;;;8.82;4.40;;;3.00;99.90;;;;;;5120168;28;20043;-79
2021/01/06 02:34:39;;;;;;;9.35;5.10;;;2.70;99.90;;;;;;5119841;28;20047;-79
2021/01/06 02:37:06;;;;;;;11.40;5.60;;;3.00;99.90;;;;;;5119163;28;20135;-79
2021/01/06 02:39:33;;;;;;;10.02;4.75;;;;;;;;;;5118874;28;20050;-78
2021/01/06 02:41:59;;;;;;;15.38;4.80;;;;;;;;;;5120882;28;20054;-79
2021/01/06 02:44:25;;;;;;;10.85;5.05;;;;;;;;;;5123634;28;20031;-78
2021/01/06 02:46:53;;;;;;;7.88;4.47;;;2.90;99.90;;;;;;5121723;28;20044;-79
2021/01/06 02:49:19;;;;;;;10.18;4.57;;;;;;;;;;5121437;28;20047;-79
2021/01/06 02:51:49;;;;;;;10.18;4.30;;;2.90;99.90;;;;;;5122848;28;20048;-79
2021/01/06 02:54:20;;;;;;;11.30;4.90;;;2.80;99.90;;;;;;5122615;28;20040;-79
2021/01/06 02:56:50;;;;;;;8.85;5.13;;;2.80;99.90;;;;;;5123609;28;20184;-79
2021/01/06 02:59:17;;;;;;;13.02;4.95;;;;;;;;;;5122507;28;20052;-79
2021/01/06 03:01:45;;;;;;;7.60;4.30;;;4.00;99.90;;;;;;5121303;28;20040;-79
2021/01/06 03:04:15;;;;;;;8.60;4.65;;;2.80;99.90;;;;;;5121639;28;20096;-79
2021/01/06 03:06:46;;;;;;;10.02;4.30;;;2.80;99.90;;;;;;5121664;28;20495;-79
2021/01/06 03:09:31;;;;;;;11.25;5.25;;;2.80;99.90;;;;;;5121256;28;20385;-78
2021/01/06 03:12:02;;;;;;;8.23;4.00;;;2.80;99.90;;;;;;5122533;28;20067;-78
2021/01/06 03:14:29;;;;;;;9.30;4.57;;;2.70;99.90;;;;;;5123953;28;20054;-78
2021/01/06 03:16:56;;;;;;;12.02;5.10;;;;;;;;;;5123047;28;20043;-79
2021/01/06 03:19:24;;;;;;;9.18;4.90;;;2.70;99.90;;;;;;5122990;28;20118;-80
2021/01/06 03:21:52;;;;;;;10.35;5.53;;;2.80;99.90;;;;;;5122674;28;20059;-79
2021/01/06 03:24:21;;;;;;;11.20;5.55;;;2.80;99.90;;;;;;5122817;28;20039;-79
2021/01/06 03:26:47;;;;;;;11.55;6.15;;;;;;;;;;5124014;28;20134;-79
2021/01/06 03:29:14;;;;;;;11.27;5.35;;;;;;;;;;5124799;28;20043;-79
2021/01/06 03:31:44;;;;;;;12.52;5.53;;;2.70;99.90;;;;;;5125212;28;20047;-79
2021/01/06 03:34:18;;;;;;;11.73;6.32;;;2.70;99.90;;;;;;5128545;28;20049;-79
2021/01/06 03:36:50;;;;;;;11.55;4.78;;;2.70;99.90;;;;;;5131093;28;20040;-79
2021/01/06 03:39:20;;;;;;;10.07;4.97;;;2.60;99.90;;;;;;5138258;28;20043;-83
2021/01/06 03:41:46;;;;;;;12.05;6.03;;;2.50;99.90;;;;;;5138244;28;20035;-80
2021/01/06 03:44:14;;;;;;;10.73;5.47;;;2.50;99.90;;;;;;5136643;28;20034;-81
2021/01/06 03:46:46;;;;;;;12.57;5.82;;;2.50;99.90;;;;;;5139235;28;20032;-80
2021/01/06 03:49:23;;;;;;;12.30;6.60;;;2.60;99.90;;;;;;5134770;28;20043;-79
2021/01/06 03:51:58;;;;;;;9.50;5.88;;;2.60;99.90;;;;;;5117995;28;20472;-79
2021/01/06 03:54:34;;;;;;;10.55;6.10;;;2.60;99.90;;;;;;5119704;28;20067;-79
2021/01/06 03:57:02;;;;;;;12.45;6.43;;;2.60;99.90;;;;;;5119305;28;20047;-79
2021/01/06 03:59:32;;;;;;;14.75;5.68;;;2.60;99.90;;;;;;5119958;28;20047;-79
2021/01/06 04:02:08;;;;;;;12.60;6.75;;;2.60;99.90;;;;;;5119914;28;20489;-79
2021/01/06 04:04:39;;;;;;;16.55;6.95;;;2.50;99.90;;;;;;5120359;28;20035;-80
2021/01/06 04:07:08;;;;;;;15.82;7.63;;;2.50;99.90;;;;;;5120242;28;20053;-78
2021/01/06 04:09:41;;;;;;;19.30;8.60;;;2.60;99.90;;;;;;5119687;28;20127;-79
2021/01/06 04:12:10;;;;;;;14.60;7.60;;;2.60;99.90;;;;;;5119180;28;20051;-79
2021/01/06 04:14:37;;;;;;;16.55;8.70;;;;;;;;;;5119273;28;20385;-79
2021/01/06 04:17:16;;;;;;;14.43;8.07;;;2.50;99.90;;;;;;5118350;28;20092;-79
2021/01/06 04:19:44;;;;;;;14.15;7.40;;;;;;;;;;5119225;28;20070;-79
2021/01/06 04:22:10;;;;;;;15.40;7.47;;;;;;;;;;5119050;28;20082;-79
2021/01/06 04:24:36;;;;;;;17.88;8.02;;;;;;;;;;5119870;28;20134;-79
2021/01/06 04:27:02;;;;;;;17.80;7.82;;;;;;;;;;5119538;28;20405;-80
2021/01/06 04:29:28;;;;;;;16.88;7.65;;;;;;;;;;5119268;28;20051;-79
2021/01/06 04:31:55;;;;;;;16.35;7.55;;;;;;;;;;5119536;28;20047;-78
2021/01/06 04:34:22;;;;;;;14.77;7.63;;;;;;;;;;5120718;28;20480;-79
2021/01/06 04:36:48;;;;;;;16.23;8.05;;;;;;;;;;5119231;28;20138;-79
2021/01/06 04:39:13;;;;;;;13.10;7.15;;;2.40;99.90;;;;;;5117883;28;20036;-79
2021/01/06 04:41:46;;;;;;;18.38;7.25;;;2.30;99.90;;;;;;5119039;28;20074;-79
2021/01/06 04:44:42;;;;;;;16.05;7.38;;;5.40;99.90;;;;;;5118976;28;20035;-79
2021/01/06 04:47:28;;;;;;;12.45;6.85;;;2.50;99.90;;;;;;5118372;28;20499;-79
2021/01/06 04:50:12;;;;;;;15.55;7.20;;;2.60;99.90;;;;;;5117887;28;20043;-79
2021/01/06 04:52:47;;;;;;;12.23;6.10;;;2.60;99.90;;;;;;5118265;28;20107;-78
2021/01/06 04:55:31;;;;;;;15.93;6.35;;;2.50;99.90;;;;;;5118526;28;20036;-79
2021/01/06 04:58:13;;;;;;;16.45;7.20;;;2.50;99.90;;;;;;5118578;28;20051;-79
2021/01/06 05:01:01;;;;;;;13.43;7.47;;;3.30;99.90;;;;;;5117725;28;20447;-79
2021/01/06 05:03:57;;;;;;;12.10;6.80;;;2.60;99.90;;;;;;5120609;28;20031;-79
2021/01/06 05:06:48;;;;;;;14.52;6.18;;;2.50;99.90;;;;;;5121174;28;20043;-79
2021/01/06 05:09:19;;;;;;;15.27;6.63;;;2.40;99.90;;;;;;5121672;28;20059;-79
2021/01/06 05:11:55;;;;;;;13.75;6.68;;;2.60;99.90;;;;;;5120725;28;20066;-79
2021/01/06 05:14:27;;;;;;;13.73;6.65;;;3.30;99.90;;;;;;5120466;28;20073;-79
2021/01/06 05:16:53;;;;;;;10.80;6.45;;;2.60;99.90;;;;;;5120919;28;20050;-79
2021/01/06 05:19:23;;;;;;;10.73;6.53;;;2.60;99.90;;;;;;5121389;28;20044;-79
2021/01/06 05:21:50;;;;;;;14.55;6.72;;;;;;;;;;5120799;28;20052;-79
2021/01/06 05:24:23;;;;;;;15.20;7.30;;;2.60;99.90;;;;;;5120959;28;20381;-79
2021/01/06 05:26:55;;;;;;;12.52;6.57;;;2.60;99.90;;;;;;5120723;28;20032;-79
2021/01/06 05:29:26;;;;;;;17.95;7.28;;;2.60;99.90;;;;;;5121323;28;20040;-79
2021/01/06 05:31:52;;;;;;;14.48;6.80;;;2.70;99.90;;;;;;5122163;28;20035;-79
2021/01/06 05:34:19;;;;;;;13.35;6.88;;;;;;;;;;5121724;28;20442;-79
2021/01/06 05:36:46;;;;;;;13.30;7.35;;;;;;;;;;5122599;28;20055;-78
2021/01/06 05:39:21;;;;;;;14.13;7.03;;;2.40;99.90;;;;;;5121736;28;20047;-79
2021/01/06 05:41:50;;;;;;;19.38;7.57;;;2.40;99.90;;;;;;5124015;28;20043;-79
2021/01/06 05:44:16;;;;;;;17.15;7.80;;;;;;;;;;5123575;28;20044;-80
2021/01/06 05:46:44;;;;;;;15.50;8.00;;;;;;;;;;5123239;28;20044;-80
2021/01/06 05:49:17;;;;;;;15.90;8.43;;;2.50;99.90;;;;;;5123194;28;20043;-79
2021/01/06 05:51:52;;;;;;;18.42;7.85;;;2.40;99.90;;;;;;5125413;28;20047;-79
2021/01/06 05:54:21;;;;;;;18.10;8.77;;;2.40;99.90;;;;;;5124816;28;20533;-79
2021/01/06 05:57:02;;;;;;;21.50;10.20;;;5.90;99.90;;;;;;5128119;28;20094;-79
2021/01/06 05:59:37;;;;;;;15.77;8.75;;;2.30;99.90;;;;;;5135668;28;20027;-84
2021/01/06 06:02:13;;;;;;;18.58;9.18;;;2.30;99.90;;;;;;5125632;28;20093;-79
2021/01/06 06:04:48;;;;;;;15.13;8.98;;;2.30;99.90;;;;;;5121351;28;20039;-79
2021/01/06 06:07:22;;;;;;;16.40;9.07;;;2.30;99.90;;;;;;5120912;28;20521;-79
2021/01/06 06:10:19;;;;;;;16.95;9.00;;;2.30;99.90;;;;;;5122251;28;20061;-79
2021/01/06 06:12:59;;;;;;;18.73;8.88;;;2.30;99.90;;;;;;5121003;28;20096;-78
2021/01/06 06:16:06;;;;;;;17.85;9.60;;;2.30;99.90;;;;;;5120702;28;20040;-78
2021/01/06 06:18:57;;;;;;;16.27;8.85;;;2.30;99.90;;;;;;5121177;28;20093;-79
2021/01/06 06:21:36;;;;;;;16.00;8.63;;;2.20;99.90;;;;;;5122139;28;20035;-79
2021/01/06 06:24:42;;;;;;;20.50;9.30;;;1.50;99.90;;;;;;5122818;28;20035;-78
2021/01/06 06:27:36;;;;;;;17.40;9.30;;;2.20;99.90;;;;;;5123721;28;20044;-79
2021/01/06 06:30:29;;;;;;;18.25;8.95;;;2.20;99.90;;;;;;5126754;28;20047;-79
2021/01/06 06:32:55;;;;;;;23.48;9.07;;;;;;;;;;5109956;28;20059;-79
2021/01/06 06:35:25;;;;;;;18.95;8.75;;;2.00;99.90;;;;;;5129999;28;20047;-79
2021/01/06 06:37:53;;;;;;;15.45;8.43;;;2.00;99.90;;;;;;5132565;28;20115;-78
2021/01/06 06:40:21;;;;;;;16.88;8.75;;;;;;;;;;5137848;28;20083;-79
2021/01/06 06:42:53;;;;;;;17.58;9.68;;;2.00;99.90;;;;;;5138158;28;20048;-78
2021/01/06 06:45:43;;;;;;;16.45;8.90;;;2.00;99.90;;;;;;5135500;28;20099;-78
2021/01/06 06:48:17;;;;;;;19.10;8.68;;;1.90;99.90;;;;;;5140329;28;20036;-80
2021/01/06 06:50:57;;;;;;;17.75;8.85;;;1.90;99.90;;;;;;5136970;28;20040;-79
2021/01/06 06:53:40;;;;;;;21.23;9.05;;;1.90;99.90;;;;;;5121709;28;20040;-79
2021/01/06 06:56:19;;;;;;;14.73;7.57;;;1.80;99.90;;;;;;5122090;28;20047;-79
2021/01/06 06:58:50;;;;;;;16.42;8.60;;;1.90;99.90;;;;;;5121802;28;20047;-78
2021/01/06 07:01:18;;;;;;;16.25;7.72;;;1.90;99.90;;;;;;5120505;28;20065;-79
2021/01/06 07:03:53;;;;;;;15.30;9.10;;;1.80;99.90;;;;;;5122835;28;20051;-79
2021/01/06 07:06:19;;;;;;;13.25;7.65;;;;;;;;;;5121952;28;20039;-79
2021/01/06 07:08:48;;;;;;;18.48;8.88;;;1.80;99.90;;;;;;5120459;28;20044;-80
2021/01/06 07:11:26;;;;;;;15.75;8.50;;;1.80;99.90;;;;;;5121206;28;20043;-79
2021/01/06 07:13:59;;;;;;;14.00;7.70;;;1.80;99.90;;;;;;5121649;28;20485;-79
2021/01/06 07:16:31;;;;;;;15.25;7.38;;;1.80;99.90;;;;;;5121399;28;20052;-80
2021/01/06 07:19:16;;;;;;;14.60;8.25;;;1.80;99.90;;;;;;5121381;28;20042;-79
2021/01/06 07:21:42;;;;;;;16.55;8.68;;;;;;;;;;5121999;28;20047;-79
2021/01/06 07:24:16;;;;;;;15.95;8.35;;;1.70;99.90;;;;;;5122878;28;20104;-79
2021/01/06 07:26:47;;;;;;;15.65;8.02;;;1.70;99.90;;;;;;5120870;28;20039;-79
2021/01/06 07:29:15;;;;;;;22.33;8.53;;;1.70;99.90;;;;;;5121827;28;20160;-79
2021/01/06 07:31:51;;;;;;;16.55;8.77;;;1.70;99.90;;;;;;5120445;28;20065;-80
2021/01/06 07:34:20;;;;;;;18.52;8.77;;;1.70;99.90;;;;;;5120415;28;20043;-80
2021/01/06 07:36:49;;;;;;;17.20;9.17;;;1.60;99.90;;;;;;5119867;28;20119;-79
2021/01/06 07:39:27;;;;;;;18.52;9.23;;;1.70;99.90;;;;;;5120342;28;20285;-79
2021/01/06 07:41:54;;;;;;;18.65;8.77;;;;;;;;;;5120558;28;20043;-79
2021/01/06 07:44:26;;;;;;;17.15;8.80;;;1.70;99.90;;;;;;5121313;28;20047;-79
2021/01/06 07:47:13;;;;;;;13.95;7.72;;;1.60;99.90;;;;;;5120751;28;20039;-79
2021/01/06 07:49:44;;;;;;;16.23;8.60;;;1.60;99.90;;;;;;5120758;28;20090;-80
2021/01/06 07:52:33;;;;;;;20.17;9.35;;;1.60;99.90;;;;;;5121350;28;20550;-79
2021/01/06 07:55:20;;;;;;;22.42;9.82;;;1.60;99.90;;;;;;5120945;28;20077;-79
2021/01/06 07:57:49;;;;;;;15.40;8.38;;;1.60;99.90;;;;;;5119598;28;20043;-79
2021/01/06 08:00:24;;;;;;;17.70;9.20;;;1.60;99.90;;;;;;5119887;28;20047;-79
2021/01/06 08:02:57;;;;;;;19.67;9.40;;;1.60;99.90;;;;;;5118998;28;20119;-79
2021/01/06 08:05:26;;;;;;;17.73;9.10;;;1.60;99.90;;;;;;5119820;28;20038;-79
2021/01/06 08:08:05;;;;;;;19.38;9.52;;;1.60;99.90;;;;;;5118888;28;20100;-79
2021/01/06 08:10:33;;;;;;;20.02;9.15;;;1.60;99.90;;;;;;5118602;28;20043;-79
2021/01/06 08:13:25;;;;;;;24.73;11.98;;;1.60;99.90;;;;;;5119326;28;20040;-79
2021/01/06 08:15:55;;;;;;;21.13;10.10;;;1.70;99.90;;;;;;5119034;28;20142;-79
2021/01/06 08:18:33;;;;;;;19.90;10.38;;;1.70;99.90;;;;;;5119124;28;20082;-80
2021/01/06 08:21:08;;;;;;;17.85;9.70;;;1.60;99.90;;;;;;5118260;28;20043;-79
2021/01/06 08:24:02;;;;;;;16.23;8.43;;;1.60;99.90;;;;;;5117498;28;20039;-79
2021/01/06 08:26:29;;;;;;;17.92;8.18;;;1.60;99.90;;;;;;5118345;28;20040;-79
2021/01/06 08:29:10;;;;;;;20.50;9.75;;;1.60;99.90;;;;;;5118515;28;20107;-79
2021/01/06 08:31:42;;;;;;;18.57;8.33;;;1.60;99.90;;;;;;5118596;28;20051;-79
2021/01/06 08:34:22;;;;;;;16.17;8.30;;;1.60;99.90;;;;;;5118877;28;20039;-79
2021/01/06 08:36:54;;;;;;;16.58;8.85;;;1.60;99.90;;;;;;5117585;28;20055;-79
2021/01/06 08:39:23;;;;;;;17.85;8.70;;;1.60;99.90;;;;;;5121833;28;20044;-79
2021/01/06 08:41:50;;;;;;;16.42;8.68;;;1.60;99.90;;;;;;5121689;28;20067;-79
2021/01/06 08:44:29;;;;;;;14.83;8.27;;;1.60;99.90;;;;;;5122000;28;20031;-78
2021/01/06 08:46:57;;;;;;;18.70;9.00;;;1.60;99.90;;;;;;5121393;28;20054;-79
2021/01/06 08:49:27;;;;;;;18.10;8.68;;;1.60;99.90;;;;;;5121341;28;20467;-79
2021/01/06 08:51:55;;;;;;;17.90;8.87;;;1.40;99.90;;;;;;5122500;28;20039;-80
2021/01/06 08:54:33;;;;;;;13.27;6.65;;;1.60;99.90;;;;;;5121878;28;20052;-79
2021/01/06 08:57:12;;;;;;;15.80;8.00;;;1.40;99.90;;;;;;5121665;28;20107;-79
2021/01/06 08:59:39;;;;;;;16.08;7.47;;;;;;;;;;5122838;28;20047;-79
2021/01/06 09:02:16;;;;;;;19.53;8.53;;;1.50;99.90;;;;;;5123077;28;20051;-79
2021/01/06 09:04:44;;;;;;;18.80;9.10;;;1.50;99.90;;;;;;5123846;28;20043;-82
2021/01/06 09:07:19;;;;;;;18.67;9.07;;;1.50;99.90;;;;;;5122213;28;20042;-79
2021/01/06 09:09:59;;;;;;;20.43;9.70;;;1.60;99.90;;;;;;5122630;28;20067;-79
2021/01/06 09:12:35;;;;;;;17.88;9.32;;;1.60;99.90;;;;;;5123612;28;20078;-79
2021/01/06 09:15:06;;;;;;;18.50;9.00;;;1.60;99.90;;;;;;5122919;28;20044;-79
2021/01/06 09:17:39;;;;;;;19.75;10.10;;;1.50;99.90;;;;;;5123757;28;20059;-79
2021/01/06 09:20:10;;;;;;;24.30;10.10;;;1.50;99.90;;;;;;5123935;28;20054;-80
2021/01/06 09:22:36;;;;;;;23.77;10.70;;;1.50;99.90;;;;;;5126433;28;20039;-80
2021/01/06 09:25:04;;;;;;;21.50;9.85;;;0.00;99.90;;;;;;5125746;28;20138;-79
2021/01/06 09:27:34;;;;;;;22.80;10.10;;;1.60;99.90;;;;;;5125741;28;20100;-80
2021/01/06 09:30:03;;;;;;;16.90;9.18;;;1.70;99.90;;;;;;5128634;28;20065;-79
2021/01/06 09:32:34;;;;;;;20.67;9.82;;;1.60;99.90;;;;;;5129938;28;20050;-80
2021/01/06 09:35:03;;;;;;;22.13;9.82;;;1.70;99.90;;;;;;5129682;28;20066;-80
2021/01/06 09:37:32;;;;;;;22.50;10.40;;;1.70;99.90;;;;;;5128721;28;20104;-79
2021/01/06 09:40:07;;;;;;;21.00;10.43;;;1.70;99.90;;;;;;5133634;28;20023;-80
2021/01/06 09:42:33;;;;;;;24.08;10.23;;;;;;;;;;5132966;28;20043;-79
2021/01/06 09:44:59;;;;;;;18.95;9.52;;;;;;;;;;5130936;28;20068;-79
2021/01/06 09:47:33;;;;;;;17.40;8.95;;;1.80;99.90;;;;;;5132592;28;20044;-79
2021/01/06 09:50:02;;;;;;;24.35;9.23;;;1.80;99.90;;;;;;5126023;28;20063;-79
2021/01/06 09:52:31;;;;;;;24.70;11.23;;;2.60;99.90;;;;;;5124540;28;20473;-79
2021/01/06 09:54:58;;;;;;;21.60;9.93;;;1.90;99.90;;;;;;5121359;28;20393;-79
2021/01/06 09:57:26;;;;;;;22.30;9.98;;;1.90;99.90;;;;;;5123717;28;20047;-80
2021/01/06 09:59:54;;;;;;;16.42;8.70;;;1.70;99.90;;;;;;5123519;28;20048;-79
2021/01/06 10:02:23;;;;;;;15.95;8.88;;;1.80;99.90;;;;;;5124588;28;20051;-78
2021/01/06 10:04:54;;;;;;;20.70;9.40;;;1.80;99.90;;;;;;5124610;28;20047;-79
2021/01/06 10:07:36;;;;;;;16.37;8.23;;;1.80;99.90;;;;;;5128563;28;20075;-80
2021/01/06 10:10:07;;;;;;;18.00;8.80;;;1.80;99.90;;;;;;5134209;28;20043;-80
2021/01/06 10:12:59;;;;;;;21.67;8.75;;;1.80;99.90;;;;;;5135679;28;20040;-79
2021/01/06 10:15:37;;;;;;;18.38;9.05;;;1.80;99.90;;;;;;5134839;28;20074;-79
2021/01/06 10:18:17;;;;;;;15.65;7.93;;;1.90;99.90;;;;;;5122882;28;20039;-79
2021/01/06 10:20:50;;;;;;;18.20;8.00;;;1.90;99.90;;;;;;5122800;28;20097;-79
2021/01/06 10:23:30;;;;;;;16.00;7.70;;;1.90;99.90;;;;;;5124037;28;20043;-79
2021/01/06 10:25:58;;;;;;;14.23;7.43;;;1.90;99.90;;;;;;5131742;28;20115;-79
2021/01/06 10:28:32;;;;;;;14.15;7.25;;;3.50;99.90;;;;;;5130045;28;20039;-79
2021/01/06 10:31:06;;;;;;;18.60;8.32;;;1.80;99.90;;;;;;5128991;28;20044;-79
2021/01/06 10:33:32;;;;;;;15.98;7.95;;;2.00;99.90;;;;;;5131567;28;20039;-80
2021/01/06 10:36:51;;;;;;;16.38;7.68;;;1.30;99.90;;;;;;5120405;28;20028;-80
2021/01/06 10:39:22;;;;;;;16.67;8.43;;;2.00;99.90;;;;;;5066850;28;20045;-79
2021/01/06 10:41:59;;;;;;;18.73;8.85;;;2.00;99.90;;;;;;5110112;28;20036;-79
2021/01/06 10:44:29;;;;;;;16.70;7.53;;;2.10;99.90;;;;;;5110550;28;20040;-80
2021/01/06 10:46:55;;;;;;;17.85;8.10;;;2.10;99.90;;;;;;5104124;28;20421;-80
2021/01/06 10:49:53;;;;;;;14.20;6.85;;;2.10;99.90;;;;;;5102619;28;20473;-80
2021/01/06 10:52:36;;;;;;;16.05;7.28;;;2.00;99.90;;;;;;5102004;28;20032;-79
2021/01/06 10:55:24;;;;;;;14.57;7.30;;;2.00;99.90;;;;;;5099828;28;20082;-79
2021/01/06 10:57:53;;;;;;;13.38;6.68;;;2.00;99.90;;;;;;5100366;28;20051;-80
2021/01/06 11:00:22;;;;;;;14.07;6.88;;;1.90;99.90;;;;;;5102296;28;20047;-80
2021/01/06 11:03:42;;;;;;;18.70;8.00;;;5.90;99.90;;;;;;5100367;28;20063;-80
2021/01/06 11:06:27;;;;;;;16.52;6.95;;;1.90;99.90;;;;;;5073892;28;20047;-81
2021/01/06 11:09:11;;;;;;;17.73;7.53;;;1.90;99.90;;;;;;5102824;28;20044;-80
2021/01/06 11:12:05;;;;;;;13.93;7.18;;;2.00;99.90;;;;;;5118402;28;20066;-80
2021/01/06 11:14:43;;;;;;;14.65;7.13;;;2.00;99.90;;;;;;5121223;28;20051;-78
2021/01/06 11:17:31;;;;;;;14.50;7.05;;;2.00;99.90;;;;;;5117773;28;20146;-81
2021/01/06 11:19:59;;;;;;;15.23;7.50;;;2.00;99.90;;;;;;5120408;28;20043;-79
2021/01/06 11:22:38;;;;;;;12.82;6.82;;;2.00;99.90;;;;;;5121431;28;20130;-80
2021/01/06 11:25:24;;;;;;;15.02;7.30;;;1.90;99.90;;;;;;5123217;28;20032;-79
2021/01/06 11:28:19;;;;;;;14.30;7.03;;;1.90;99.90;;;;;;5122687;28;20055;-81
2021/01/06 11:31:06;;;;;;;15.13;6.43;;;2.10;99.90;;;;;;5123524;27;20043;-80
2021/01/06 11:33:35;;;;;;;14.10;7.13;;;2.00;99.90;;;;;;5118825;28;20050;-80
2021/01/06 11:36:21;;;;;;;15.15;6.68;;;1.90;99.90;;;;;;5119781;27;20381;-78
2021/01/06 11:38:51;;;;;;;14.80;7.00;;;1.90;99.90;;;;;;5117154;28;20097;-78
2021/01/06 11:41:38;;;;;;;14.70;7.60;;;1.90;99.90;;;;;;5119551;28;20139;-78
2021/01/06 11:44:18;;;;;;;15.93;7.30;;;1.70;99.90;;;;;;5120298;28;20111;-80
2021/01/06 11:47:00;;;;;;;14.75;6.50;;;1.90;99.90;;;;;;5120822;28;20039;-79
2021/01/06 11:49:30;;;;;;;13.65;6.75;;;1.90;99.90;;;;;;5115358;28;20093;-81
2021/01/06 11:52:26;;;;;;;12.77;6.63;;;1.90;99.90;;;;;;5100929;28;20044;-80
2021/01/06 11:54:55;;;;;;;17.13;7.13;;;1.70;99.90;;;;;;5097834;28;20134;-80
2021/01/06 11:57:31;;;;;;;17.20;7.32;;;1.80;99.90;;;;;;5097853;28;20071;-80
2021/01/06 12:00:37;;;;;;;17.73;7.70;;;1.90;99.90;;;;;;5106408;28;20044;-81
2021/01/06 12:03:24;;;;;;;12.48;6.53;;;1.90;99.90;;;;;;5056821;28;20041;-78
2021/01/06 12:06:06;;;;;;;12.43;6.35;;;1.80;99.90;;;;;;5039722;28;20037;-80
2021/01/06 12:08:59;;;;;;;14.15;6.53;;;1.90;99.90;;;;;;5091292;28;20054;-80
2021/01/06 12:11:32;;;;;;;13.77;6.57;;;1.90;99.90;;;;;;5114413;28;20120;-78
2021/01/06 12:14:21;;;;;;;14.77;6.53;;;1.80;99.90;;;;;;5102097;28;20453;-81
2021/01/06 12:16:55;;;;;;;15.15;6.53;;;2.00;99.90;;;;;;5097126;28;20820;-80
2021/01/06 12:19:34;;;;;;;12.70;6.53;;;1.90;99.90;;;;;;5097306;28;20055;-81
2021/01/06 12:22:13;;;;;;;12.13;6.20;;;1.90;99.90;;;;;;5098291;28;20058;-79
2021/01/06 12:24:49;;;;;;;12.80;6.40;;;2.00;99.90;;;;;;5098764;28;20044;-80
2021/01/06 12:27:45;;;;;;;14.00;7.00;;;3.20;99.90;;;;;;5100054;28;20282;-78
2021/01/06 12:30:43;;;;;;;14.15;6.75;;;1.90;99.90;;;;;;5101833;28;20062;-81
2021/01/06 12:33:31;;;;;;;15.65;7.97;;;1.80;99.90;;;;;;5098380;28;20113;-79
2021/01/06 12:36:25;;;;;;;13.57;7.32;;;1.80;99.90;;;;;;5105676;28;20039;-81
2021/01/06 12:38:54;;;;;;;16.30;7.97;;;1.90;99.90;;;;;;5083543;28;20489;-81
2021/01/06 12:41:23;;;;;;;16.92;8.40;;;2.00;99.90;;;;;;5107083;28;20048;-81
2021/01/06 12:44:07;;;;;;;18.65;8.50;;;2.00;99.90;;;;;;5105243;28;20074;-80
2021/01/06 12:46:40;;;;;;;21.73;8.85;;;2.00;99.90;;;;;;5103067;28;20112;-80
2021/01/06 12:49:31;;;;;;;19.27;9.23;;;2.10;99.90;;;;;;5108809;28;20047;-79
2021/01/06 12:52:15;;;;;;;16.63;8.45;;;2.10;99.90;;;;;;5099856;28;20059;-80
2021/01/06 12:54:47;;;;;;;18.70;9.30;;;2.00;99.90;;;;;;5096403;28;20111;-79
2021/01/06 12:57:19;;;;;;;18.70;8.77;;;-0.40;99.90;;;;;;5098705;28;20490;-79
2021/01/06 12:59:49;;;;;;;16.88;9.13;;;2.30;99.90;;;;;;5096612;28;20036;-79
2021/01/06 13:02:35;;;;;;;21.75;9.25;;;2.00;99.90;;;;;;5100263;28;20645;-81
2021/01/06 13:05:17;;;;;;;19.15;9.52;;;2.00;99.90;;;;;;5100168;28;20044;-79
2021/01/06 13:07:49;;;;;;;17.27;9.20;;;2.00;99.90;;;;;;5099666;28;20051;-80
2021/01/06 13:10:29;;;;;;;22.05;10.05;;;2.00;99.90;;;;;;5115889;28;20096;-81
2021/01/06 13:13:02;;;;;;;18.05;9.77;;;2.00;99.90;;;;;;5106359;28;20049;-80
2021/01/06 13:15:32;;;;;;;21.77;9.27;;;2.10;99.90;;;;;;5104611;28;20105;-80
2021/01/06 13:18:01;;;;;;;17.63;9.27;;;2.10;99.90;;;;;;5098843;28;20047;-80
2021/01/06 13:20:56;;;;;;;17.95;9.10;;;2.10;99.90;;;;;;5101436;28;20048;-80
2021/01/06 13:23:40;;;;;;;22.63;10.68;;;2.00;99.90;;;;;;5119931;28;20139;-79
2021/01/06 13:26:29;;;;;;;18.90;9.00;;;2.10;99.90;;;;;;5105553;28;20059;-79
2021/01/06 13:29:07;;;;;;;17.52;9.02;;;2.10;99.90;;;;;;5106337;28;20094;-81
2021/01/06 13:31:42;;;;;;;18.40;9.18;;;2.10;99.90;;;;;;5122908;28;20126;-82
2021/01/06 13:34:17;;;;;;;15.48;7.57;;;2.10;99.90;;;;;;5122920;28;20085;-81
2021/01/06 13:36:48;;;;;;;16.50;7.85;;;1.90;99.90;;;;;;5109140;28;20104;-81
2021/01/06 13:39:29;;;;;;;12.98;7.10;;;1.90;99.90;;;;;;5110850;28;20097;-81
2021/01/06 13:41:59;;;;;;;15.65;7.95;;;1.80;99.90;;;;;;5107649;28;20438;-80
2021/01/06 13:44:37;;;;;;;16.67;7.68;;;1.80;99.90;;;;;;5125012;28;20043;-80